Relevés horaires Matro (Suisse)


Relevés horaires à Matro - Mardi 28 Mai 2019
Heure UTC1 Température [°C] Vent [km/h] Hum. [%] Pres.4 [hPa] Visi. [Km] Nébu. [octa] Préc.5 [mm] Cond.
2m. Res. Ros. Dir.2 Vit. Moy. Raf.3
23:00 0.0 -6.8 -4.3 NNO 33.3 -- 59.3 73 850(0.5/3h) -- -- -- --
22:00 0.6 -6.6 -5.2 NNO 40.7 -- 66.7 65 850(0.7/3h) -- -- -- --
21:00 0.7 -6.8 -4.6 NO 44.4 -- 72.2 68 850(0.6/3h) -- -- -- --
20:00 0.8 -6.4 -3.9 NNO 40.7 -- 63.0 71 850(1.1/3h) -- -- -- --
19:00 1.2 -6.3 -3.6 NNO 46.3 -- 70.4 70 850(0.5/3h) -- -- -- --
18:00 0.9 -6.4 -2.6 NNO 42.6 -- 64.8 77 850(0.0/3h) -- -- -- --
17:00 1.1 -6.3 -2.5 NNO 44.4 -- 59.3 77 850(-0.2/3h) -- -- -- --
16:00 0.9 -6.1 -2.7 NNO 38.9 -- 55.6 77 850(0.3/3h) -- -- -- --
15:00 0.5 -6.1 -0.9 NNO 33.3 -- 64.8 90 850(0.8/3h) -- -- -- --
14:00 0.3 -6.7 -0.4 NNO 37.0 -- 64.8 95 850(0.7/3h) -- -- -- --
13:00 0.4 -7.5 -0.5 NO 48.2 -- 59.3 94 850(0.4/3h) -- -- -- --
12:00 2.5 -3.4 -0.4 ONO 31.5 -- 53.7 81 850(0.2/3h) -- -- -- --
11:00 3.4 -0.5 1.2 ONO 16.7 -- 31.5 85 850(0.1/3h) -- -- -- --
10:00 4.4 2.1 2.1 NO 9.3 -- 14.8 85 850(0.0/3h) -- -- -- --
09:00 4.7 4.7 2.1 NO 3.7 -- 22.2 83 850(0.1/3h) -- -- -- --
08:00 5.8 5.8 1.8 NO 3.7 -- 22.2 75 850(0.1/3h) -- -- -- --
07:00 4.5 2.2 1.1 O 9.3 -- 20.4 79 850(0.0/3h) -- -- -- --
06:00 4.4 1.3 -- NO 13.0 -- 25.9 -- 850(-0.1/3h) -- -- -- --
05:00 4.4 1 0.2 NO 14.8 -- 22.2 74 850(-0.6/3h) -- -- -- --
04:00 4.2 0.5 -0.1 NO 16.7 -- 25.9 74 850(-0.9/3h) -- -- -- --
03:00 4.3 0.6 -0.2 ONO 16.7 -- 24.1 72 850(-1.5/3h) -- -- -- --
02:00 3.8 0 0.7 NNO 16.7 -- 24.1 80 850(-1.5/3h) -- -- -- --
01:00 4.1 0.7 0.9 NO 14.8 -- 20.4 80 850(-1.6/3h) -- -- -- --
00:00 4.0 1.6 1.1 ONO 9.3 -- 25.9 81 850(-1.2/3h) -- -- -- --

1 Coordinated Universal Time. Actuellement il est 20:00 locale et 18:00 UTC.

2 Le vent souffle depuis la direction indiquée vers la direction oposée.

3 Les rafales max. sont disponible 40 min après l'heure du relevé.

4 Pour les stations d'altitude (plus de 600m) le géopotentiel du niveau le plus proche de la pression obligatoire est indiqué.

5 Les stations disposant d'un diffuseur peuvent indiquer "trace". Cela signifie que des précipitations ont touchés le sol mais que la quantité est inférieure à 0.1 mm.

Copyright

Les données affichées sur cette page sont la propriété exclusive de Météo Suisse.

Récapitulatif de la journée
Température [°C] Vent [km/h] Ensoleillement4 [h] Precipitations totale5 [mm] Pression [Hpa]
Min1 Max.2 Moy.3 Max. Min Max.
3.4 6.3 0 72.2 0 h 30 min 0 850.0 850.0

1 Température minimale relevée entre 18:00 UTC la veille et 18:00 UTC le jour donné.

2 Température maximale relevée entre 06:00 UTC le jour donné et 06:00 UTC le lendemain.

3 Vent moyen de la journée basé sur les relevés horaires.

4 Ensoleillement en heures relevé entre 06:00 UTC la veille et 06:00 UTC le jour donné.

5 Précipitations totales tombées entre 06:00 UTC la jour donné et 06:00 UTC le lendemain.

Graphiques horaires